createdAt,value
2022-09-16T00:00:42.793Z,13.60
2022-09-16T00:10:46.321Z,13.60
2022-09-16T00:20:50.300Z,13.70
2022-09-16T00:30:53.593Z,13.70
2022-09-16T00:40:55.510Z,13.60
2022-09-16T00:51:02.446Z,13.60
2022-09-16T01:01:05.781Z,13.60
2022-09-16T01:11:09.157Z,13.50
2022-09-16T01:21:24.512Z,13.50
2022-09-16T01:31:35.952Z,13.60
2022-09-16T01:41:47.498Z,13.60
2022-09-16T01:51:59.198Z,13.60
2022-09-16T02:02:07.087Z,13.60
2022-09-16T02:12:14.699Z,13.40
2022-09-16T02:22:20.289Z,13.20
2022-09-16T02:32:27.665Z,13.10
2022-09-16T02:42:30.430Z,12.90
2022-09-16T02:52:39.247Z,12.70
2022-09-16T03:02:41.674Z,12.50
2022-09-16T03:12:58.897Z,12.40
2022-09-16T03:23:11.497Z,12.30
2022-09-16T03:33:23.556Z,12.30
2022-09-16T03:43:25.519Z,12.40
2022-09-16T03:53:28.797Z,12.40
2022-09-16T04:03:33.329Z,12.40
2022-09-16T04:13:36.876Z,12.30
2022-09-16T04:23:38.785Z,12.30
2022-09-16T04:33:42.457Z,12.20
2022-09-16T04:43:44.386Z,12.20
2022-09-16T04:53:47.719Z,12.10
2022-09-16T05:03:51.763Z,12.00
2022-09-16T05:13:55.670Z,12.00
2022-09-16T05:24:01.277Z,11.90
2022-09-16T05:34:06.533Z,12.00
2022-09-16T05:44:08.679Z,11.90
2022-09-16T05:54:12.019Z,11.90
2022-09-16T06:04:15.258Z,11.80
2022-09-16T06:14:19.518Z,11.80
2022-09-16T06:24:21.611Z,11.90
2022-09-16T06:34:25.001Z,12.00
2022-09-16T06:44:26.917Z,12.00
2022-09-16T06:54:32.424Z,12.20
2022-09-16T07:04:34.401Z,12.20
2022-09-16T07:14:37.694Z,12.40
2022-09-16T07:24:39.611Z,12.40
2022-09-16T07:34:42.920Z,12.40
2022-09-16T07:44:45.024Z,12.60
2022-09-16T07:54:49.148Z,13.20
2022-09-16T08:04:51.030Z,14.10
2022-09-16T08:14:54.309Z,14.50
2022-09-16T08:24:56.198Z,14.90
2022-09-16T08:34:59.467Z,14.60
2022-09-16T08:45:19.976Z,15.00
2022-09-16T08:55:28.618Z,15.60
2022-09-16T09:05:36.572Z,15.60
2022-09-16T09:15:45.166Z,17.10
2022-09-16T09:25:53.114Z,19.60
2022-09-16T09:36:22.429Z,19.80
2022-09-16T09:46:29.274Z,18.50
2022-09-16T09:56:36.635Z,18.50
2022-09-16T10:06:38.626Z,17.50
2022-09-16T10:16:48.043Z,17.60
2022-09-16T10:26:50.047Z,17.80
2022-09-16T10:37:02.934Z,19.70
2022-09-16T10:47:07.179Z,18.80
2022-09-16T10:57:22.742Z,19.60
2022-09-16T11:07:41.332Z,19.10
2022-09-16T11:17:57.145Z,19.00
2022-09-16T11:28:12.664Z,18.00
2022-09-16T11:38:26.682Z,17.20
2022-09-16T11:48:41.695Z,17.30
2022-09-16T11:58:48.026Z,16.80
2022-09-16T12:08:56.199Z,17.50
2022-09-16T12:19:04.110Z,17.20
2022-09-16T12:29:14.927Z,17.10
2022-09-16T12:39:18.327Z,16.70
2022-09-16T12:49:55.062Z,16.40
2022-09-16T13:00:11.715Z,16.80
2022-09-16T13:10:20.852Z,16.80
2022-09-16T13:20:30.974Z,16.50
2022-09-16T13:30:36.051Z,16.30
2022-09-16T13:40:39.520Z,16.40
2022-09-16T13:50:43.131Z,16.90
2022-09-16T14:00:55.954Z,16.80
2022-09-16T14:11:08.460Z,16.50
2022-09-16T14:21:19.735Z,16.80
2022-09-16T14:31:24.559Z,17.50
2022-09-16T14:41:32.342Z,17.60
2022-09-16T14:51:34.263Z,16.90
2022-09-16T15:01:37.951Z,16.70
2022-09-16T15:11:48.644Z,17.70
2022-09-16T15:21:53.279Z,18.30
2022-09-16T15:32:05.987Z,18.20
2022-09-16T15:42:13.217Z,17.10
2022-09-16T15:52:15.373Z,17.40
2022-09-16T16:02:35.770Z,17.50
2022-09-16T16:12:37.772Z,17.10
2022-09-16T16:22:41.454Z,17.10
2022-09-16T16:32:43.355Z,17.30
2022-09-16T16:42:46.644Z,17.20
2022-09-16T16:52:50.903Z,16.40
2022-09-16T17:03:22.853Z,16.20
2022-09-16T17:13:24.753Z,16.00
2022-09-16T17:23:28.087Z,15.50
2022-09-16T17:33:29.994Z,15.10
2022-09-16T17:43:34.107Z,14.90
2022-09-16T17:53:37.100Z,14.80
2022-09-16T18:03:43.143Z,14.60
2022-09-16T18:13:47.550Z,14.40
2022-09-16T18:23:53.771Z,14.30
2022-09-16T18:33:56.219Z,14.10
2022-09-16T18:44:01.138Z,13.90
2022-09-16T18:54:05.105Z,13.80
2022-09-16T19:04:10.439Z,13.60
2022-09-16T19:14:13.234Z,13.50
2022-09-16T19:24:50.461Z,13.30
2022-09-16T19:34:42.793Z,13.10
2022-09-16T19:44:46.038Z,12.90
2022-09-16T19:54:47.938Z,12.80
2022-09-16T20:04:51.293Z,12.70
2022-09-16T20:14:53.207Z,12.50
2022-09-16T20:25:18.786Z,12.40
2022-09-16T20:35:18.365Z,12.30
2022-09-16T20:45:21.737Z,12.30
2022-09-16T20:55:23.768Z,12.10
2022-09-16T21:05:27.573Z,12.00
2022-09-16T21:15:29.482Z,11.90
2022-09-16T21:25:32.866Z,11.90
2022-09-16T21:35:34.780Z,11.70
2022-09-16T21:45:42.857Z,11.70
2022-09-16T21:55:44.770Z,11.60
2022-09-16T22:05:48.189Z,11.50
2022-09-16T22:15:50.849Z,11.40
2022-09-16T22:25:54.168Z,11.30
2022-09-16T22:35:56.106Z,11.20
2022-09-16T22:46:04.381Z,11.10
2022-09-16T22:56:09.524Z,11.10
2022-09-16T23:06:14.726Z,11.00
2022-09-16T23:16:18.701Z,10.90
2022-09-16T23:26:23.810Z,10.90
2022-09-16T23:36:26.570Z,10.80
2022-09-16T23:46:30.201Z,10.70
2022-09-16T23:56:32.248Z,10.60
